sensor_id;sensor_type;location;lat;lon;timestamp;pressure;altitude;pressure_sealevel;temperature;humidity
26043;BME280;13818;52.156;5.382;2023-04-08T00:00:28;102026.97;;;8.52;100.00
26043;BME280;13818;52.156;5.382;2023-04-08T00:02:55;102044.75;;;8.48;100.00
26043;BME280;13818;52.156;5.382;2023-04-08T00:05:23;102036.81;;;8.45;100.00
26043;BME280;13818;52.156;5.382;2023-04-08T00:07:51;102035.19;;;8.36;100.00
26043;BME280;13818;52.156;5.382;2023-04-08T00:10:19;102034.44;;;8.28;100.00
26043;BME280;13818;52.156;5.382;2023-04-08T00:12:48;102031.81;;;8.26;100.00
26043;BME280;13818;52.156;5.382;2023-04-08T00:15:21;102036.31;;;8.23;100.00
26043;BME280;13818;52.156;5.382;2023-04-08T00:18:06;102039.75;;;8.28;100.00
26043;BME280;13818;52.156;5.382;2023-04-08T00:20:42;102038.88;;;8.29;100.00
26043;BME280;13818;52.156;5.382;2023-04-08T00:23:09;102039.72;;;8.31;100.00
26043;BME280;13818;52.156;5.382;2023-04-08T00:25:37;102039.72;;;8.31;100.00
26043;BME280;13818;52.156;5.382;2023-04-08T00:28:04;102042.34;;;8.33;100.00
26043;BME280;13818;52.156;5.382;2023-04-08T00:30:38;102033.63;;;8.26;100.00
26043;BME280;13818;52.156;5.382;2023-04-08T00:33:10;102039.97;;;8.17;100.00
26043;BME280;13818;52.156;5.382;2023-04-08T00:35:44;102046.38;;;8.04;100.00
26043;BME280;13818;52.156;5.382;2023-04-08T00:38:12;102052.72;;;7.93;100.00
26043;BME280;13818;52.156;5.382;2023-04-08T00:40:45;102045.56;;;7.98;100.00
26043;BME280;13818;52.156;5.382;2023-04-08T00:43:15;102048.25;;;7.97;100.00
26043;BME280;13818;52.156;5.382;2023-04-08T00:45:49;102057.19;;;7.91;100.00
26043;BME280;13818;52.156;5.382;2023-04-08T00:48:17;102059.00;;;7.89;100.00
26043;BME280;13818;52.156;5.382;2023-04-08T00:50:49;102056.31;;;7.91;100.00
26043;BME280;13818;52.156;5.382;2023-04-08T00:53:20;102048.34;;;7.91;100.00
26043;BME280;13818;52.156;5.382;2023-04-08T00:55:50;102052.16;;;7.71;100.00
26043;BME280;13818;52.156;5.382;2023-04-08T00:58:18;102054.19;;;7.55;100.00
26043;BME280;13818;52.156;5.382;2023-04-08T01:00:51;102056.84;;;7.54;100.00
26043;BME280;13818;52.156;5.382;2023-04-08T01:03:29;102060.38;;;7.53;100.00
26043;BME280;13818;52.156;5.382;2023-04-08T01:06:07;102056.13;;;7.44;100.00
26043;BME280;13818;52.156;5.382;2023-04-08T01:08:39;102053.56;;;7.35;100.00
26043;BME280;13818;52.156;5.382;2023-04-08T01:11:13;102057.13;;;7.33;100.00
26043;BME280;13818;52.156;5.382;2023-04-08T01:13:42;102065.97;;;7.34;100.00
26043;BME280;13818;52.156;5.382;2023-04-08T01:16:17;102062.41;;;7.33;100.00
26043;BME280;13818;52.156;5.382;2023-04-08T01:18:45;102068.53;;;7.40;100.00
26043;BME280;13818;52.156;5.382;2023-04-08T01:21:17;102066.66;;;7.47;100.00
26043;BME280;13818;52.156;5.382;2023-04-08T01:23:53;102063.03;;;7.53;100.00
26043;BME280;13818;52.156;5.382;2023-04-08T01:26:27;102064.81;;;7.55;100.00
26043;BME280;13818;52.156;5.382;2023-04-08T01:29:00;102070.00;;;7.61;100.00
26043;BME280;13818;52.156;5.382;2023-04-08T01:31:29;102074.44;;;7.61;100.00
26043;BME280;13818;52.156;5.382;2023-04-08T01:33:59;102069.13;;;7.61;100.00
26043;BME280;13818;52.156;5.382;2023-04-08T01:36:31;102069.09;;;7.62;100.00
26043;BME280;13818;52.156;5.382;2023-04-08T01:39:02;102069.09;;;7.65;100.00
26043;BME280;13818;52.156;5.382;2023-04-08T01:41:35;102068.22;;;7.63;100.00
26043;BME280;13818;52.156;5.382;2023-04-08T01:44:04;102066.44;;;7.65;100.00
26043;BME280;13818;52.156;5.382;2023-04-08T01:46:32;102064.69;;;7.61;100.00
26043;BME280;13818;52.156;5.382;2023-04-08T01:49:00;102073.56;;;7.59;100.00
26043;BME280;13818;52.156;5.382;2023-04-08T01:51:32;102072.88;;;7.46;100.00
26043;BME280;13818;52.156;5.382;2023-04-08T01:54:00;102070.09;;;7.54;100.00
26043;BME280;13818;52.156;5.382;2023-04-08T01:56:29;102072.81;;;7.51;100.00
26043;BME280;13818;52.156;5.382;2023-04-08T01:59:01;102074.75;;;7.36;100.00
26043;BME280;13818;52.156;5.382;2023-04-08T02:01:32;102084.59;;;7.29;100.00
26043;BME280;13818;52.156;5.382;2023-04-08T02:04:03;102077.53;;;7.27;100.00
26043;BME280;13818;52.156;5.382;2023-04-08T02:06:37;102075.88;;;7.21;100.00
26043;BME280;13818;52.156;5.382;2023-04-08T02:09:05;102074.84;;;7.30;100.00
26043;BME280;13818;52.156;5.382;2023-04-08T02:11:33;102073.94;;;7.32;100.00
26043;BME280;13818;52.156;5.382;2023-04-08T02:14:05;102073.09;;;7.27;100.00
26043;BME280;13818;52.156;5.382;2023-04-08T02:16:39;102070.44;;;7.27;100.00
26043;BME280;13818;52.156;5.382;2023-04-08T02:19:16;102074.03;;;7.23;100.00
26043;BME280;13818;52.156;5.382;2023-04-08T02:21:47;102075.09;;;7.11;100.00
26043;BME280;13818;52.156;5.382;2023-04-08T02:24:16;102073.25;;;7.16;100.00
26043;BME280;13818;52.156;5.382;2023-04-08T02:26:48;102083.97;;;7.06;100.00
26043;BME280;13818;52.156;5.382;2023-04-08T02:29:21;102075.94;;;7.13;100.00
26043;BME280;13818;52.156;5.382;2023-04-08T02:31:52;102077.72;;;7.13;100.00
26043;BME280;13818;52.156;5.382;2023-04-08T02:34:21;102088.28;;;7.18;100.00
26043;BME280;13818;52.156;5.382;2023-04-08T02:36:51;102077.66;;;7.18;100.00
26043;BME280;13818;52.156;5.382;2023-04-08T02:39:18;102076.75;;;7.19;100.00
26043;BME280;13818;52.156;5.382;2023-04-08T02:41:46;102081.31;;;7.06;100.00
26043;BME280;13818;52.156;5.382;2023-04-08T02:44:14;102090.09;;;7.11;100.00
26043;BME280;13818;52.156;5.382;2023-04-08T02:46:48;102091.16;;;6.97;100.00
26043;BME280;13818;52.156;5.382;2023-04-08T02:49:18;102092.03;;;6.96;100.00
26043;BME280;13818;52.156;5.382;2023-04-08T02:51:49;102098.06;;;7.09;100.00
26043;BME280;13818;52.156;5.382;2023-04-08T02:54:17;102089.19;;;7.13;100.00
26043;BME280;13818;52.156;5.382;2023-04-08T02:56:47;102090.88;;;7.21;100.00
26043;BME280;13818;52.156;5.382;2023-04-08T02:59:14;102096.97;;;7.27;100.00
26043;BME280;13818;52.156;5.382;2023-04-08T03:01:43;102091.69;;;7.26;100.00
26043;BME280;13818;52.156;5.382;2023-04-08T03:04:10;102105.91;;;7.20;100.00
26043;BME280;13818;52.156;5.382;2023-04-08T03:06:39;102098.06;;;7.11;100.00
26043;BME280;13818;52.156;5.382;2023-04-08T03:09:08;102099.84;;;7.10;100.00
26043;BME280;13818;52.156;5.382;2023-04-08T03:11:39;102103.44;;;7.06;100.00
26043;BME280;13818;52.156;5.382;2023-04-08T03:14:10;102099.88;;;7.06;100.00
26043;BME280;13818;52.156;5.382;2023-04-08T03:16:40;102101.69;;;7.02;100.00
26043;BME280;13818;52.156;5.382;2023-04-08T03:19:08;102106.91;;;7.08;100.00
26043;BME280;13818;52.156;5.382;2023-04-08T03:21:37;102112.22;;;7.08;100.00
26043;BME280;13818;52.156;5.382;2023-04-08T03:24:04;102098.91;;;7.14;100.00
26043;BME280;13818;52.156;5.382;2023-04-08T03:26:32;102106.91;;;7.11;100.00
26043;BME280;13818;52.156;5.382;2023-04-08T03:29:01;102095.41;;;7.11;100.00
26043;BME280;13818;52.156;5.382;2023-04-08T03:31:31;102106.00;;;7.11;100.00
26043;BME280;13818;52.156;5.382;2023-04-08T03:33:59;102106.94;;;7.07;100.00
26043;BME280;13818;52.156;5.382;2023-04-08T03:36:28;102114.88;;;7.08;100.00
26043;BME280;13818;52.156;5.382;2023-04-08T03:38:58;102100.72;;;7.09;100.00
26043;BME280;13818;52.156;5.382;2023-04-08T03:41:26;102104.44;;;6.93;100.00
26043;BME280;13818;52.156;5.382;2023-04-08T03:43:56;102103.81;;;6.69;100.00
26043;BME280;13818;52.156;5.382;2023-04-08T03:46:23;102104.63;;;6.74;100.00
26043;BME280;13818;52.156;5.382;2023-04-08T03:48:51;102108.94;;;6.88;100.00
26043;BME280;13818;52.156;5.382;2023-04-08T03:51:18;102108.13;;;6.78;100.00
26043;BME280;13818;52.156;5.382;2023-04-08T03:53:47;102109.16;;;6.63;100.00
26043;BME280;13818;52.156;5.382;2023-04-08T03:56:14;102107.28;;;6.74;100.00
26043;BME280;13818;52.156;5.382;2023-04-08T03:58:42;102114.44;;;6.63;100.00
26043;BME280;13818;52.156;5.382;2023-04-08T04:01:09;102116.19;;;6.68;100.00
26043;BME280;13818;52.156;5.382;2023-04-08T04:03:38;102120.72;;;6.54;100.00
26043;BME280;13818;52.156;5.382;2023-04-08T04:06:06;102129.59;;;6.48;100.00
26043;BME280;13818;52.156;5.382;2023-04-08T04:08:35;102129.56;;;6.53;100.00
26043;BME280;13818;52.156;5.382;2023-04-08T04:11:04;102139.28;;;6.56;100.00
26043;BME280;13818;52.156;5.382;2023-04-08T04:13:34;102127.00;;;6.42;100.00
26043;BME280;13818;52.156;5.382;2023-04-08T04:16:06;102134.06;;;6.43;100.00
26043;BME280;13818;52.156;5.382;2023-04-08T04:18:40;102143.72;;;6.49;100.00
26043;BME280;13818;52.156;5.382;2023-04-08T04:21:11;102156.06;;;6.53;100.00
26043;BME280;13818;52.156;5.382;2023-04-08T04:23:41;102140.22;;;6.48;100.00
26043;BME280;13818;52.156;5.382;2023-04-08T04:26:11;102148.16;;;6.47;100.00
26043;BME280;13818;52.156;5.382;2023-04-08T04:28:41;102148.22;;;6.41;100.00
26043;BME280;13818;52.156;5.382;2023-04-08T04:31:17;102150.88;;;6.38;100.00
26043;BME280;13818;52.156;5.382;2023-04-08T04:33:47;102162.50;;;6.18;100.00
26043;BME280;13818;52.156;5.382;2023-04-08T04:36:16;102158.88;;;6.30;100.00
26043;BME280;13818;52.156;5.382;2023-04-08T04:38:44;102151.78;;;6.33;100.00
26043;BME280;13818;52.156;5.382;2023-04-08T04:41:13;102168.44;;;6.48;100.00
26043;BME280;13818;52.156;5.382;2023-04-08T04:43:43;102167.66;;;6.35;100.00
26043;BME280;13818;52.156;5.382;2023-04-08T04:46:10;102168.72;;;6.11;100.00
26043;BME280;13818;52.156;5.382;2023-04-08T04:48:39;102171.25;;;6.28;100.00
26043;BME280;13818;52.156;5.382;2023-04-08T04:51:06;102167.72;;;6.27;100.00
26043;BME280;13818;52.156;5.382;2023-04-08T04:53:34;102173.06;;;6.19;100.00
26043;BME280;13818;52.156;5.382;2023-04-08T04:56:01;102184.53;;;6.20;100.00
26043;BME280;13818;52.156;5.382;2023-04-08T04:58:30;102184.53;;;6.20;100.00
26043;BME280;13818;52.156;5.382;2023-04-08T05:00:58;102189.94;;;6.05;100.00
26043;BME280;13818;52.156;5.382;2023-04-08T05:03:28;102184.66;;;6.01;100.00
26043;BME280;13818;52.156;5.382;2023-04-08T05:05:56;102186.44;;;5.99;100.00
26043;BME280;13818;52.156;5.382;2023-04-08T05:08:23;102195.25;;;5.95;100.00
26043;BME280;13818;52.156;5.382;2023-04-08T05:10:57;102195.34;;;5.77;100.00
26043;BME280;13818;52.156;5.382;2023-04-08T05:13:29;102190.97;;;5.66;100.00
26043;BME280;13818;52.156;5.382;2023-04-08T05:15:58;102203.25;;;5.80;100.00
26043;BME280;13818;52.156;5.382;2023-04-08T05:18:26;102202.38;;;5.81;100.00
26043;BME280;13818;52.156;5.382;2023-04-08T05:20:53;102200.63;;;5.75;100.00
26043;BME280;13818;52.156;5.382;2023-04-08T05:23:22;102198.06;;;5.52;100.00
26043;BME280;13818;52.156;5.382;2023-04-08T05:25:52;102202.34;;;5.90;100.00
26043;BME280;13818;52.156;5.382;2023-04-08T05:28:22;102200.66;;;5.70;100.00
26043;BME280;13818;52.156;5.382;2023-04-08T05:30:51;102203.31;;;5.67;100.00
26043;BME280;13818;52.156;5.382;2023-04-08T05:33:21;102210.31;;;5.84;100.00
26043;BME280;13818;52.156;5.382;2023-04-08T05:35:51;102199.59;;;6.12;100.00
26043;BME280;13818;52.156;5.382;2023-04-08T05:38:18;102206.56;;;6.27;100.00
26043;BME280;13818;52.156;5.382;2023-04-08T05:40:46;102220.56;;;6.46;100.00
26043;BME280;13818;52.156;5.382;2023-04-08T05:43:13;102209.06;;;6.50;100.00
26043;BME280;13818;52.156;5.382;2023-04-08T05:45:46;102205.22;;;6.88;100.00
26043;BME280;13818;52.156;5.382;2023-04-08T05:48:16;102211.78;;;7.42;100.00
26043;BME280;13818;52.156;5.382;2023-04-08T05:50:45;102218.84;;;8.14;100.00
26043;BME280;13818;52.156;5.382;2023-04-08T05:53:13;102216.75;;;8.94;100.00
26043;BME280;13818;52.156;5.382;2023-04-08T05:55:41;102221.66;;;9.16;100.00
26043;BME280;13818;52.156;5.382;2023-04-08T05:58:08;102220.28;;;9.87;100.00
26043;BME280;13818;52.156;5.382;2023-04-08T06:00:35;102212.72;;;9.66;100.00
26043;BME280;13818;52.156;5.382;2023-04-08T06:03:03;102212.19;;;9.93;100.00
26043;BME280;13818;52.156;5.382;2023-04-08T06:05:31;102208.34;;;10.05;100.00
26043;BME280;13818;52.156;5.382;2023-04-08T06:07:59;102212.78;;;10.83;100.00
26043;BME280;13818;52.156;5.382;2023-04-08T06:10:27;102212.91;;;12.08;100.00
26043;BME280;13818;52.156;5.382;2023-04-08T06:12:54;102213.44;;;11.59;100.00
26043;BME280;13818;52.156;5.382;2023-04-08T06:15:22;102222.13;;;11.66;100.00
26043;BME280;13818;52.156;5.382;2023-04-08T06:17:49;102220.19;;;12.32;100.00
26043;BME280;13818;52.156;5.382;2023-04-08T06:20:18;102219.13;;;12.92;100.00
26043;BME280;13818;52.156;5.382;2023-04-08T06:22:50;102228.47;;;13.32;100.00
26043;BME280;13818;52.156;5.382;2023-04-08T06:25:22;102219.22;;;12.62;100.00
26043;BME280;13818;52.156;5.382;2023-04-08T06:27:49;102226.13;;;13.23;100.00
26043;BME280;13818;52.156;5.382;2023-04-08T06:30:17;102244.19;;;12.34;100.00
26043;BME280;13818;52.156;5.382;2023-04-08T06:32:44;102233.03;;;11.89;100.00
26043;BME280;13818;52.156;5.382;2023-04-08T06:35:20;102250.88;;;11.87;100.00
26043;BME280;13818;52.156;5.382;2023-04-08T06:37:48;102256.63;;;13.44;100.00
26043;BME280;13818;52.156;5.382;2023-04-08T06:40:15;102250.22;;;13.23;100.00
26043;BME280;13818;52.156;5.382;2023-04-08T06:42:44;102251.34;;;13.42;100.00
26043;BME280;13818;52.156;5.382;2023-04-08T06:45:11;102267.81;;;12.19;100.00
26043;BME280;13818;52.156;5.382;2023-04-08T06:47:39;102272.25;;;12.20;100.00
26043;BME280;13818;52.156;5.382;2023-04-08T06:50:14;102268.94;;;13.49;100.00
26043;BME280;13818;52.156;5.382;2023-04-08T06:52:42;102272.09;;;13.61;94.23
26043;BME280;13818;52.156;5.382;2023-04-08T06:55:13;102268.72;;;13.56;94.24
26043;BME280;13818;52.156;5.382;2023-04-08T06:57:40;102273.06;;;14.31;91.24
26043;BME280;13818;52.156;5.382;2023-04-08T07:00:12;102271.63;;;13.98;88.75
26043;BME280;13818;52.156;5.382;2023-04-08T07:02:42;102275.06;;;13.78;88.65
26043;BME280;13818;52.156;5.382;2023-04-08T07:05:10;102285.25;;;13.15;93.98
26043;BME280;13818;52.156;5.382;2023-04-08T07:07:42;102278.19;;;12.00;99.54
26043;BME280;13818;52.156;5.382;2023-04-08T07:10:12;102292.19;;;12.95;99.10
26043;BME280;13818;52.156;5.382;2023-04-08T07:12:39;102289.09;;;13.85;93.24
26043;BME280;13818;52.156;5.382;2023-04-08T07:15:12;102292.41;;;13.92;87.76
26043;BME280;13818;52.156;5.382;2023-04-08T07:17:43;102294.47;;;14.09;83.65
26043;BME280;13818;52.156;5.382;2023-04-08T07:20:19;102299.75;;;13.87;82.16
26043;BME280;13818;52.156;5.382;2023-04-08T07:22:50;102313.41;;;14.52;80.76
26043;BME280;13818;52.156;5.382;2023-04-08T07:25:28;102302.28;;;13.41;82.49
26043;BME280;13818;52.156;5.382;2023-04-08T07:28:02;102315.63;;;14.40;80.71
26043;BME280;13818;52.156;5.382;2023-04-08T07:30:33;102317.09;;;14.25;82.11
26043;BME280;13818;52.156;5.382;2023-04-08T07:33:09;102318.47;;;14.36;80.50
26043;BME280;13818;52.156;5.382;2023-04-08T07:35:43;102317.53;;;14.37;81.82
26043;BME280;13818;52.156;5.382;2023-04-08T07:38:12;102319.91;;;15.76;75.51
26043;BME280;13818;52.156;5.382;2023-04-08T07:40:42;102311.91;;;15.95;71.17
26043;BME280;13818;52.156;5.382;2023-04-08T07:43:15;102322.84;;;15.49;73.07
26043;BME280;13818;52.156;5.382;2023-04-08T07:46:00;102321.00;;;15.29;73.68
26043;BME280;13818;52.156;5.382;2023-04-08T07:48:30;102318.78;;;13.54;77.27
26043;BME280;13818;52.156;5.382;2023-04-08T07:51:07;102327.03;;;13.73;77.13
26043;BME280;13818;52.156;5.382;2023-04-08T07:53:37;102318.69;;;13.03;82.76
26043;BME280;13818;52.156;5.382;2023-04-08T07:56:13;102326.88;;;13.25;83.38
26043;BME280;13818;52.156;5.382;2023-04-08T07:58:54;102311.09;;;12.89;84.20
26043;BME280;13818;52.156;5.382;2023-04-08T08:01:23;102326.19;;;13.18;84.40
26043;BME280;13818;52.156;5.382;2023-04-08T08:03:52;102314.56;;;12.93;89.24
26043;BME280;13818;52.156;5.382;2023-04-08T08:06:20;102321.75;;;13.46;87.48
26043;BME280;13818;52.156;5.382;2023-04-08T08:08:50;102320.13;;;13.13;87.44
26043;BME280;13818;52.156;5.382;2023-04-08T08:11:20;102324.91;;;13.03;88.49
26043;BME280;13818;52.156;5.382;2023-04-08T08:13:51;102325.97;;;13.26;88.82
26043;BME280;13818;52.156;5.382;2023-04-08T08:16:19;102337.28;;;12.79;89.65
26043;BME280;13818;52.156;5.382;2023-04-08T08:18:47;102332.97;;;13.02;89.85
26043;BME280;13818;52.156;5.382;2023-04-08T08:21:15;102331.34;;;13.25;88.01
26043;BME280;13818;52.156;5.382;2023-04-08T08:23:45;102328.53;;;13.29;90.13
26043;BME280;13818;52.156;5.382;2023-04-08T08:26:13;102329.84;;;13.44;88.28
26043;BME280;13818;52.156;5.382;2023-04-08T08:28:42;102330.34;;;12.44;90.10
26043;BME280;13818;52.156;5.382;2023-04-08T08:31:10;102331.13;;;13.58;90.88
26043;BME280;13818;52.156;5.382;2023-04-08T08:33:40;102336.34;;;13.35;88.62
26043;BME280;13818;52.156;5.382;2023-04-08T08:36:09;102338.53;;;13.76;86.17
26043;BME280;13818;52.156;5.382;2023-04-08T08:38:36;102345.06;;;13.15;88.49
26043;BME280;13818;52.156;5.382;2023-04-08T08:41:07;102343.88;;;12.96;92.72
26043;BME280;13818;52.156;5.382;2023-04-08T08:43:34;102337.16;;;13.11;89.95
26043;BME280;13818;52.156;5.382;2023-04-08T08:46:03;102339.72;;;12.87;91.14
26043;BME280;13818;52.156;5.382;2023-04-08T08:48:30;102344.66;;;14.05;85.63
26043;BME280;13818;52.156;5.382;2023-04-08T08:50:59;102339.56;;;13.47;88.46
26043;BME280;13818;52.156;5.382;2023-04-08T08:53:29;102345.50;;;13.82;87.60
26043;BME280;13818;52.156;5.382;2023-04-08T08:55:57;102344.28;;;13.65;84.48
26043;BME280;13818;52.156;5.382;2023-04-08T08:58:26;102339.13;;;13.06;90.07
26043;BME280;13818;52.156;5.382;2023-04-08T09:00:54;102338.56;;;13.23;87.31
26043;BME280;13818;52.156;5.382;2023-04-08T09:03:23;102349.66;;;12.83;92.53
26043;BME280;13818;52.156;5.382;2023-04-08T09:05:53;102353.91;;;12.31;99.24
26043;BME280;13818;52.156;5.382;2023-04-08T09:08:25;102346.41;;;12.44;100.00
26043;BME280;13818;52.156;5.382;2023-04-08T09:10:55;102352.53;;;12.47;100.00
26043;BME280;13818;52.156;5.382;2023-04-08T09:13:23;102356.44;;;12.65;100.00
26043;BME280;13818;52.156;5.382;2023-04-08T09:16:04;102358.75;;;13.33;100.00
26043;BME280;13818;52.156;5.382;2023-04-08T09:18:32;102365.56;;;13.43;99.04
26043;BME280;13818;52.156;5.382;2023-04-08T09:21:02;102374.34;;;13.48;98.09
26043;BME280;13818;52.156;5.382;2023-04-08T09:23:40;102359.75;;;13.02;98.44
26043;BME280;13818;52.156;5.382;2023-04-08T09:26:11;102365.31;;;12.67;99.71
26043;BME280;13818;52.156;5.382;2023-04-08T09:28:40;102374.31;;;11.67;100.00
26043;BME280;13818;52.156;5.382;2023-04-08T09:31:22;102376.22;;;12.30;100.00
26043;BME280;13818;52.156;5.382;2023-04-08T09:33:52;102378.25;;;12.81;94.84
26043;BME280;13818;52.156;5.382;2023-04-08T09:36:22;102379.41;;;13.01;90.14
26043;BME280;13818;52.156;5.382;2023-04-08T09:38:52;102373.94;;;13.32;90.89
26043;BME280;13818;52.156;5.382;2023-04-08T09:41:22;102373.31;;;12.96;94.87
26043;BME280;13818;52.156;5.382;2023-04-08T09:43:54;102381.22;;;13.00;89.35
26043;BME280;13818;52.156;5.382;2023-04-08T09:46:26;102385.09;;;13.18;85.79
26043;BME280;13818;52.156;5.382;2023-04-08T09:49:00;102381.56;;;13.18;86.00
26043;BME280;13818;52.156;5.382;2023-04-08T09:51:33;102390.41;;;13.48;86.69
26043;BME280;13818;52.156;5.382;2023-04-08T09:54:08;102384.19;;;13.19;86.81
26043;BME280;13818;52.156;5.382;2023-04-08T09:56:43;102378.31;;;13.35;87.78
26043;BME280;13818;52.156;5.382;2023-04-08T09:59:13;102395.91;;;13.15;86.84
26043;BME280;13818;52.156;5.382;2023-04-08T10:01:45;102380.47;;;13.52;85.85
26043;BME280;13818;52.156;5.382;2023-04-08T10:04:15;102390.56;;;13.44;88.35
26043;BME280;13818;52.156;5.382;2023-04-08T10:06:49;102390.91;;;13.33;81.04
26043;BME280;13818;52.156;5.382;2023-04-08T10:09:19;102376.16;;;13.19;82.86
26043;BME280;13818;52.156;5.382;2023-04-08T10:11:51;102386.31;;;13.37;80.21
26043;BME280;13818;52.156;5.382;2023-04-08T10:14:23;102375.38;;;13.44;82.35
26043;BME280;13818;52.156;5.382;2023-04-08T10:17:23;102367.16;;;12.94;84.24
26043;BME280;13818;52.156;5.382;2023-04-08T10:19:50;102363.25;;;12.76;84.71
26043;BME280;13818;52.156;5.382;2023-04-08T10:22:46;102365.28;;;12.97;89.75
26043;BME280;13818;52.156;5.382;2023-04-08T10:25:31;102365.94;;;13.04;88.97
26043;BME280;13818;52.156;5.382;2023-04-08T10:28:24;102364.72;;;13.14;88.53
26043;BME280;13818;52.156;5.382;2023-04-08T10:30:52;102365.19;;;13.27;84.49
26043;BME280;13818;52.156;5.382;2023-04-08T10:33:31;102353.28;;;13.36;83.06
26043;BME280;13818;52.156;5.382;2023-04-08T10:36:06;102366.22;;;13.23;87.99
26043;BME280;13818;52.156;5.382;2023-04-08T10:38:40;102371.78;;;13.45;86.19
26043;BME280;13818;52.156;5.382;2023-04-08T10:41:09;102363.28;;;13.58;84.50
26043;BME280;13818;52.156;5.382;2023-04-08T10:43:38;102375.09;;;13.52;83.87
26043;BME280;13818;52.156;5.382;2023-04-08T10:46:09;102372.22;;;13.31;84.90
26043;BME280;13818;52.156;5.382;2023-04-08T10:48:37;102357.84;;;13.34;86.47
26043;BME280;13818;52.156;5.382;2023-04-08T10:51:04;102372.13;;;13.06;89.13
26043;BME280;13818;52.156;5.382;2023-04-08T10:53:36;102363.00;;;13.12;88.08
26043;BME280;13818;52.156;5.382;2023-04-08T10:56:04;102374.56;;;13.14;84.78
26043;BME280;13818;52.156;5.382;2023-04-08T10:58:35;102369.13;;;13.44;83.22
26043;BME280;13818;52.156;5.382;2023-04-08T11:01:05;102361.81;;;12.94;85.38
26043;BME280;13818;52.156;5.382;2023-04-08T11:03:33;102358.00;;;13.01;85.52
26043;BME280;13818;52.156;5.382;2023-04-08T11:06:06;102349.63;;;13.12;84.47
26043;BME280;13818;52.156;5.382;2023-04-08T11:08:36;102346.63;;;12.94;81.54
26043;BME280;13818;52.156;5.382;2023-04-08T11:11:06;102352.38;;;13.10;78.19
26043;BME280;13818;52.156;5.382;2023-04-08T11:14:00;102350.59;;;12.52;77.62
26043;BME280;13818;52.156;5.382;2023-04-08T11:18:12;102355.94;;;12.82;75.31
26043;BME280;13818;52.156;5.382;2023-04-08T11:20:03;102362.34;;;13.32;73.48
26043;BME280;13818;52.156;5.382;2023-04-08T11:22:38;102353.75;;;13.22;75.07
26043;BME280;13818;52.156;5.382;2023-04-08T11:25:27;102351.72;;;13.02;73.91
26043;BME280;13818;52.156;5.382;2023-04-08T11:27:55;102345.69;;;13.50;76.39
26043;BME280;13818;52.156;5.382;2023-04-08T11:30:26;102348.94;;;13.60;74.37
26043;BME280;13818;52.156;5.382;2023-04-08T11:32:59;102341.13;;;13.79;73.67
26043;BME280;13818;52.156;5.382;2023-04-08T11:35:28;102350.16;;;14.00;65.71
26043;BME280;13818;52.156;5.382;2023-04-08T11:37:55;102336.72;;;14.02;63.45
26043;BME280;13818;52.156;5.382;2023-04-08T11:40:24;102351.69;;;14.08;60.93
26043;BME280;13818;52.156;5.382;2023-04-08T11:42:52;102346.84;;;13.43;65.40
26043;BME280;13818;52.156;5.382;2023-04-08T11:45:24;102351.63;;;13.86;66.79
26043;BME280;13818;52.156;5.382;2023-04-08T11:47:53;102357.22;;;13.78;66.36
26043;BME280;13818;52.156;5.382;2023-04-08T11:50:25;102348.91;;;13.33;63.54
26043;BME280;13818;52.156;5.382;2023-04-08T11:52:54;102338.84;;;13.42;67.16
26043;BME280;13818;52.156;5.382;2023-04-08T11:55:26;102363.13;;;13.35;66.64
26043;BME280;13818;52.156;5.382;2023-04-08T11:58:00;102340.34;;;13.50;72.40
26043;BME280;13818;52.156;5.382;2023-04-08T12:00:32;102349.44;;;13.72;73.51
26043;BME280;13818;52.156;5.382;2023-04-08T12:03:01;102359.88;;;13.26;75.84
26043;BME280;13818;52.156;5.382;2023-04-08T12:05:30;102356.06;;;13.06;78.29
26043;BME280;13818;52.156;5.382;2023-04-08T12:07:58;102355.91;;;13.39;79.99
26043;BME280;13818;52.156;5.382;2023-04-08T12:10:25;102343.03;;;13.50;81.69
26043;BME280;13818;52.156;5.382;2023-04-08T12:12:56;102346.28;;;13.84;81.62
26043;BME280;13818;52.156;5.382;2023-04-08T12:15:24;102342.69;;;13.85;78.65
26043;BME280;13818;52.156;5.382;2023-04-08T12:17:53;102339.91;;;14.12;79.63
26043;BME280;13818;52.156;5.382;2023-04-08T12:20:20;102344.75;;;14.26;80.69
26043;BME280;13818;52.156;5.382;2023-04-08T12:22:49;102343.31;;;14.41;73.42
26043;BME280;13818;52.156;5.382;2023-04-08T12:25:17;102340.63;;;14.64;73.19
26043;BME280;13818;52.156;5.382;2023-04-08T12:27:44;102340.16;;;14.29;75.90
26043;BME280;13818;52.156;5.382;2023-04-08T12:30:16;102345.91;;;13.95;77.99
26043;BME280;13818;52.156;5.382;2023-04-08T12:32:46;102342.81;;;14.31;76.88
26043;BME280;13818;52.156;5.382;2023-04-08T12:35:14;102343.47;;;14.60;72.45
26043;BME280;13818;52.156;5.382;2023-04-08T12:37:48;102350.72;;;14.34;74.05
26043;BME280;13818;52.156;5.382;2023-04-08T12:40:16;102346.81;;;14.19;75.46
26043;BME280;13818;52.156;5.382;2023-04-08T12:42:46;102335.69;;;14.30;75.88
26043;BME280;13818;52.156;5.382;2023-04-08T12:45:16;102338.66;;;14.22;76.67
26043;BME280;13818;52.156;5.382;2023-04-08T12:47:44;102346.28;;;14.33;79.17
26043;BME280;13818;52.156;5.382;2023-04-08T12:50:14;102335.84;;;14.49;80.37
26043;BME280;13818;52.156;5.382;2023-04-08T12:52:42;102335.22;;;14.42;79.38
26043;BME280;13818;52.156;5.382;2023-04-08T12:55:11;102335.78;;;14.27;78.41
26043;BME280;13818;52.156;5.382;2023-04-08T12:57:44;102331.88;;;14.12;79.94
26043;BME280;13818;52.156;5.382;2023-04-08T13:00:20;102334.47;;;14.39;82.35
26043;BME280;13818;52.156;5.382;2023-04-08T13:02:48;102340.16;;;14.77;81.87
26043;BME280;13818;52.156;5.382;2023-04-08T13:05:18;102336.31;;;14.84;79.95
26043;BME280;13818;52.156;5.382;2023-04-08T13:07:47;102346.16;;;14.84;78.45